Aérodrome :
LOGIN :

S'inscrire | Disclaimer

   EN    FR    IT 

 










Légende :    VFR   VFR Marginal   IFR   IFR Intensif   IFR Très Intensif
Visi : 
Plafond : 
>= 8 km
>= 3000ft
5 à 8 km
1000 à 3000 ft
1500m à 5 km
500 à 1000 ft
800 à 1500m
200 à 500 ft
< 800m
< 200 ft
Symboles :   Orages  Brouillard  Fortes neiges  Fortes précipitations  Vent > 20 kt
SIGMETs :   Divers  Orages  Givrage  Turbulence  Onde Orograph.  Cendres Volcan.







- Altitude de l'aérodrome : 1276 ft
- Code IATA : STR


EDDS - Stuttgart

DERNIER METAR :
  • 222120Z 34005KT 310V040 CAVOK 15/12 Q1014

METARs EXPIRÉS :
  • 222050Z VRB02KT CAVOK 15/13 Q1014
  • 222020Z 07002KT 9999 FEW042 SCT094 BKN110 16/12 Q1013
  • 221950Z VRB01KT 9999 FEW042 SCT090 BKN130 16/12 Q1013 NOSIG
  • 221920Z VRB03KT 9999 FEW036CB SCT042 BKN110 17/12 Q1013 NOSIG
  • 221850Z VRB05KT 9999 SCT034 SCT040CB BKN080 17/12 Q1013 TEMPO -TSRA

TAF TAF EDDS
Valide du 22 à 18h jusqu'au 23 à 18h UTC


221700Z 2218/2318 VRB03KT CAVOK
PROB40
TEMPO 2218/2301 TSRA SCT040CB
BECMG 2309/2312 01006KT
PROB30
TEMPO 2312/2318 TSRA BKN035CB
Pas de NOTAMs connus pour ce terrain.



MET'MAP, la Météo Aéronautique d'un coup d'oeil ! - Copyright ORBIFLY Décembre 2007 - Disclaimer

ORBIFLY MET'MAP TEAM :

Programmation & Développement : Alexandra Zaïnal
Conception & Développement : Baudouin d'Aumeries
Co-Programmation & Développement : Marc-Olivier Méhu
Soutien technique & logistique : Manuel Goepfert

Contact : metmap@orbifly.com




SOURCES & CREDITS :

   NOAA